Time;durP1;ratioP1;P1;durP2;ratioP2;P2;SDS_P1;SDS_P2;PMS_P1;PMS_P2;Temp;Humidity;BMP_temperature;BMP_pressure;BME280_temperature;BME280_humidity;BME280_pressure;Samples;Min_cycle;Max_cycle;Signal;HPM_P1;HPM_P2
2021/12/23 00:04:47;;;;;;;19.20;10.20;;;;;;;-6.19;100.00;98919.56;10241694;28;20051;-78
2021/12/23 00:14:52;;;;;;;16.67;11.00;;;;;;;-5.96;100.00;98919.97;10243543;28;20059;-78
2021/12/23 00:25:21;;;;;;;20.17;10.68;;;;;;;-6.07;100.00;98902.28;10259741;28;20070;-79
2021/12/23 00:30:22;;;;;;;17.88;10.05;;;;;;;-6.04;100.00;98889.59;10277891;28;20046;-79
2021/12/23 00:35:23;;;;;;;18.65;11.15;;;;;;;-5.92;100.00;98892.44;10262451;28;20112;-79
2021/12/23 00:40:24;;;;;;;16.38;9.70;;;;;;;-6.00;100.00;98892.63;10278971;28;20051;-77
2021/12/23 00:45:26;;;;;;;19.70;10.68;;;;;;;-6.07;100.00;98889.22;10248293;28;20047;-78
2021/12/23 00:50:26;;;;;;;18.05;10.98;;;;;;;-5.97;100.00;98896.66;10258841;28;20490;-79
2021/12/23 00:55:27;;;;;;;21.92;12.18;;;;;;;-5.74;100.00;98876.13;10248294;28;20040;-79
2021/12/23 01:00:28;;;;;;;16.50;10.57;;;;;;;-5.73;100.00;98878.53;10258093;28;20131;-77
2021/12/23 01:05:29;;;;;;;20.70;11.02;;;;;;;-5.73;100.00;98875.09;10258541;28;20055;-78
2021/12/23 01:10:30;;;;;;;20.63;11.07;;;;;;;-5.68;100.00;98880.50;10257064;28;20058;-78
2021/12/23 01:20:50;;;;;;;19.58;11.57;;;;;;;-5.57;100.00;98872.06;10250466;28;20096;-80
2021/12/23 01:25:52;;;;;;;19.30;10.60;;;;;;;-5.52;100.00;98871.44;10248230;28;20450;-79
2021/12/23 01:30:52;;;;;;;18.45;10.85;;;;;;;-5.49;100.00;98869.22;10263766;28;20058;-79
2021/12/23 01:35:53;;;;;;;19.20;10.27;;;;;;;-5.45;100.00;98865.19;10241042;28;20718;-77
2021/12/23 01:40:54;;;;;;;15.90;9.65;;;;;;;-5.44;100.00;98853.72;10249099;28;20077;-75
2021/12/23 01:45:54;;;;;;;17.50;9.98;;;;;;;-5.52;100.00;98861.78;10244471;28;20122;-76
2021/12/23 01:50:55;;;;;;;17.35;10.38;;;;;;;-5.51;100.00;98855.53;10246472;28;20066;-77
2021/12/23 01:55:56;;;;;;;17.05;9.93;;;;;;;-5.64;100.00;98850.34;10252499;28;20432;-77
2021/12/23 02:00:56;;;;;;;19.55;10.48;;;;;;;-5.63;100.00;98846.72;10250362;28;20058;-78
2021/12/23 02:05:57;;;;;;;18.75;10.73;;;;;;;-5.59;100.00;98829.63;10250920;28;20110;-76
2021/12/23 02:10:59;;;;;;;18.85;10.38;;;;;;;-5.36;100.00;98820.50;10256273;28;20158;-78
2021/12/23 02:16:01;;;;;;;21.60;11.23;;;;;;;-5.60;100.00;98814.94;10256515;28;20129;-78
2021/12/23 02:21:03;;;;;;;17.13;10.20;;;;;;;-5.56;100.00;98821.38;10279281;28;20147;-79
2021/12/23 02:26:04;;;;;;;23.00;12.07;;;;;;;-5.49;100.00;98809.06;10268858;28;20133;-77
2021/12/23 02:31:05;;;;;;;19.75;12.02;;;;;;;-5.43;100.00;98808.25;10242350;28;20059;-79
2021/12/23 02:36:07;;;;;;;20.23;10.95;;;;;;;-5.37;100.00;98784.91;10261418;28;20094;-78
2021/12/23 02:41:08;;;;;;;21.88;12.85;;;;;;;-5.35;100.00;98773.22;10262624;28;20055;-78
2021/12/23 02:46:09;;;;;;;22.27;12.73;;;;;;;-5.31;100.00;98753.47;10245950;28;20086;-80
2021/12/23 02:51:12;;;;;;;22.33;13.10;;;;;;;-5.23;100.00;98750.59;10257605;28;20058;-80
2021/12/23 02:56:17;;;;;;;24.17;14.05;;;;;;;-4.95;100.00;98734.53;10250721;28;20079;-80
2021/12/23 03:01:19;;;;;;;26.70;14.10;;;;;;;-5.00;100.00;98731.78;10245246;28;20130;-81
2021/12/23 03:06:26;;;;;;;25.77;14.45;;;;;;;-4.86;100.00;98722.81;10248921;28;20051;-81
2021/12/23 03:11:28;;;;;;;23.97;14.40;;;;;;;-4.92;100.00;98705.34;10246016;28;20043;-80
2021/12/23 03:16:33;;;;;;;31.57;15.57;;;;;;;-4.91;100.00;98714.78;10263350;28;20051;-80
2021/12/23 03:21:35;;;;;;;22.52;13.98;;;;;;;-4.87;100.00;98728.25;10258716;28;20066;-79
2021/12/23 03:26:35;;;;;;;26.08;14.38;;;;;;;-4.89;100.00;98719.81;10246813;28;20051;-79
2021/12/23 03:31:36;;;;;;;23.77;14.23;;;;;;;-4.83;100.00;98716.34;10268710;28;20051;-79
2021/12/23 03:36:37;;;;;;;27.70;15.50;;;;;;;-4.81;100.00;98710.91;10271839;28;20074;-79
2021/12/23 03:41:38;;;;;;;24.25;14.00;;;;;;;-4.85;100.00;98707.88;10290754;28;20339;-80
2021/12/23 03:46:39;;;;;;;27.80;15.27;;;;;;;-4.95;100.00;98686.63;10281067;28;20038;-79
2021/12/23 03:51:39;;;;;;;24.77;13.90;;;;;;;-4.95;100.00;98699.72;10274719;28;20037;-80
2021/12/23 03:56:44;;;;;;;26.90;14.38;;;;;;;-5.00;100.00;98674.19;10297062;28;20039;-79
2021/12/23 04:01:46;;;;;;;25.55;14.73;;;;;;;-5.01;100.00;98662.13;10271213;28;20075;-78
2021/12/23 04:06:46;;;;;;;27.80;15.45;;;;;;;-5.07;100.00;98660.34;10250523;28;20047;-77
2021/12/23 04:11:47;;;;;;;27.52;13.73;;;;;;;-5.17;100.00;98657.41;10243762;28;20124;-78
2021/12/23 04:16:48;;;;;;;28.20;15.57;;;;;;;-5.22;100.00;98649.38;10239849;28;20467;-78
2021/12/23 04:21:48;;;;;;;28.77;15.95;;;;;;;-5.29;100.00;98654.69;10252549;28;20442;-78
2021/12/23 04:26:48;;;;;;;27.95;15.80;;;;;;;-5.38;100.00;98661.16;10236068;28;20502;-78
2021/12/23 04:31:49;;;;;;;28.27;15.27;;;;;;;-5.37;100.00;98661.97;10243912;28;20050;-78
2021/12/23 04:36:50;;;;;;;33.83;18.30;;;;;;;-5.44;100.00;98654.94;10252537;28;20055;-77
2021/12/23 04:41:51;;;;;;;31.52;15.75;;;;;;;-5.38;100.00;98670.84;10253772;28;20054;-78
2021/12/23 04:46:52;;;;;;;26.08;16.13;;;;;;;-5.38;100.00;98665.59;10244434;28;20063;-77
2021/12/23 04:51:53;;;;;;;29.45;16.73;;;;;;;-5.46;100.00;98664.84;10244860;28;20636;-77
2021/12/23 04:56:54;;;;;;;33.05;17.20;;;;;;;-5.53;100.00;98650.19;10245283;28;20461;-77
2021/12/23 05:01:55;;;;;;;31.95;17.27;;;;;;;-5.56;100.00;98629.69;10246492;28;20059;-77
2021/12/23 05:06:56;;;;;;;31.95;16.80;;;;;;;-5.57;100.00;98628.09;10243992;28;20043;-78
2021/12/23 05:11:57;;;;;;;36.47;18.73;;;;;;;-5.59;100.00;98627.47;10246124;28;20055;-79
2021/12/23 05:16:58;;;;;;;32.58;17.45;;;;;;;-5.58;100.00;98634.31;10246529;28;20051;-79
2021/12/23 05:22:02;;;;;;;34.55;19.75;;;;;;;-5.56;100.00;98632.31;10246286;28;20526;-79
2021/12/23 05:27:03;;;;;;;35.10;19.63;;;;;;;-5.54;100.00;98628.47;10245230;28;20047;-76
2021/12/23 05:32:06;;;;;;;35.50;18.80;;;;;;;-5.56;100.00;98645.38;10249491;28;20059;-77
2021/12/23 05:37:07;;;;;;;35.63;19.73;;;;;;;-5.60;100.00;98620.66;10253134;28;20051;-77
2021/12/23 05:42:10;;;;;;;38.40;20.73;;;;;;;-5.50;100.00;98610.53;10268037;28;20107;-79
2021/12/23 05:47:15;;;;;;;38.63;20.17;;;;;;;-5.47;100.00;98616.16;10276508;28;20051;-79
2021/12/23 05:52:19;;;;;;;39.10;20.58;;;;;;;-5.46;100.00;98614.34;10255855;28;20051;-80
2021/12/23 05:57:22;;;;;;;;;;;;;;;-5.46;100.00;98604.69;10282291;28;20055;-79
2021/12/23 06:02:23;;;;;;;45.08;22.02;;;;;;;-5.37;100.00;98599.19;10255092;28;19926;-77
2021/12/23 06:07:24;;;;;;;42.13;21.30;;;;;;;-5.41;100.00;98614.50;10248189;28;20055;-79
2021/12/23 06:12:24;;;;;;;49.35;24.52;;;;;;;-5.30;100.00;98610.38;10256621;28;20079;-80
2021/12/23 06:17:27;;;;;;;42.83;22.25;;;;;;;-5.31;100.00;98587.88;10262234;28;20039;-79
2021/12/23 06:22:34;;;;;;;41.67;22.00;;;;;;;-5.18;100.00;98606.09;10252583;28;20051;-79
2021/12/23 06:27:35;;;;;;;44.63;22.55;;;;;;;-5.25;100.00;98603.53;10268601;28;20114;-79
2021/12/23 06:32:35;;;;;;;44.42;21.95;;;;;;;-5.19;100.00;98592.22;10261672;28;20069;-79
2021/12/23 06:37:36;;;;;;;44.72;23.08;;;;;;;-5.22;100.00;98592.63;10246799;28;20047;-78
2021/12/23 06:42:37;;;;;;;46.30;22.52;;;;;;;-5.12;100.00;98576.47;10248006;28;20044;-80
2021/12/23 06:47:40;;;;;;;48.83;25.17;;;;;;;-4.93;100.00;98564.22;10252429;28;20047;-80
2021/12/23 06:52:41;;;;;;;46.90;23.20;;;;;;;-4.94;100.00;98558.19;10261260;28;20047;-78
2021/12/23 06:57:42;;;;;;;45.47;22.55;;;;;;;-4.95;100.00;98550.53;10256656;28;20062;-78
2021/12/23 07:02:46;;;;;;;42.55;22.02;;;;;;;-4.97;100.00;98547.31;10259113;28;20079;-78
2021/12/23 07:07:58;;;;;;;50.92;24.05;;;;;;;-5.04;100.00;98557.84;10265409;28;20062;-78
2021/12/23 07:13:02;;;;;;;53.33;25.23;;;;;;;-4.83;100.00;98563.72;10266914;28;20066;-79
2021/12/23 07:18:20;;;;;;;54.80;24.50;;;;;;;-4.90;100.00;98548.06;10295242;28;20136;-77
2021/12/23 07:23:21;;;;;;;52.88;23.92;;;;;;;-4.78;100.00;98569.09;10278915;28;20086;-78
2021/12/23 07:28:22;;;;;;;51.40;22.80;;;;;;;-4.68;100.00;98566.78;10297784;28;20063;-80
2021/12/23 07:33:23;;;;;;;55.38;23.83;;;;;;;-4.71;100.00;98567.22;10296345;28;20039;-81
2021/12/23 07:38:24;;;;;;;48.38;23.27;;;;;;;-4.75;100.00;98547.75;10296647;28;20040;-81
2021/12/23 07:48:38;;;;;;;50.30;22.57;;;;;;;-4.69;100.00;98546.84;10282168;28;20070;-81
2021/12/23 07:53:43;;;;;;;55.40;23.40;;;;;;;-4.62;100.00;98535.28;10306052;28;20050;-82
2021/12/23 07:58:43;;;;;;;;;;;;;;;-4.50;100.00;98527.50;10290584;28;20090;-78
2021/12/23 08:03:44;;;;;;;52.73;25.07;;;;;;;-4.42;100.00;98531.63;10288313;28;19951;-81
2021/12/23 08:08:45;;;;;;;51.80;23.00;;;;;;;-4.44;100.00;98541.53;10292000;28;20280;-82
2021/12/23 08:13:51;;;;;;;49.88;22.00;;;;;;;-4.58;100.00;98533.03;10265852;28;20051;-80
2021/12/23 08:18:52;;;;;;;51.05;23.48;;;;;;;-4.55;100.00;98518.72;10264267;28;20063;-81
2021/12/23 08:23:53;;;;;;;45.08;21.77;;;;;;;-4.53;100.00;98509.59;10274494;28;20127;-79
2021/12/23 08:29:00;;;;;;;52.30;24.40;;;;;;;-4.47;100.00;98479.94;10266270;28;20082;-81
2021/12/23 08:34:01;;;;;;;52.58;23.80;;;;;;;-4.38;100.00;98491.69;10278512;28;20071;-79
2021/12/23 08:39:03;;;;;;;49.55;22.65;;;;;;;-4.19;100.00;98471.50;10270294;28;20066;-81
2021/12/23 08:44:04;;;;;;;45.13;22.58;;;;;;;-3.98;100.00;98464.94;10288798;28;20061;-79
2021/12/23 08:49:06;;;;;;;49.47;21.53;;;;;;;-4.04;100.00;98481.56;10289858;28;20062;-79
2021/12/23 08:54:08;;;;;;;46.58;20.77;;;;;;;-3.93;100.00;98485.22;10294131;28;20035;-82
2021/12/23 08:59:10;;;;;;;46.28;21.38;;;;;;;-4.06;100.00;98488.84;10275601;28;20057;-81
2021/12/23 09:04:15;;;;;;;47.08;21.42;;;;;;;-3.93;100.00;98485.22;10305215;28;20047;-80
2021/12/23 09:09:17;;;;;;;45.90;21.80;;;;;;;-3.80;100.00;98485.84;10273656;28;20107;-81
2021/12/23 09:14:21;;;;;;;41.80;20.58;;;;;;;-3.45;100.00;98482.47;10296208;28;20043;-79
2021/12/23 09:19:24;;;;;;;46.05;21.75;;;;;;;-3.38;100.00;98470.06;10267204;28;20110;-80
2021/12/23 09:24:26;;;;;;;47.65;21.10;;;;;;;-3.46;100.00;98479.06;10266046;28;20111;-80
2021/12/23 09:34:43;;;;;;;46.13;19.48;;;;;;;-3.46;100.00;98457.28;10266631;28;20062;-78
2021/12/23 09:39:45;;;;;;;44.58;20.80;;;;;;;-3.22;100.00;98450.19;10255649;28;20059;-78
2021/12/23 09:44:46;;;;;;;46.55;21.25;;;;;;;-3.25;100.00;98443.56;10254665;28;20146;-73
2021/12/23 09:49:48;;;;;;;43.17;19.85;;;;;;;-3.12;100.00;98445.13;10240451;28;20058;-69
2021/12/23 09:54:52;;;;;;;48.17;21.67;;;;;;;-3.11;100.00;98422.31;10228326;28;20250;-72
2021/12/23 09:59:54;;;;;;;40.17;19.73;;;;;;;-2.95;100.00;98406.66;10242592;28;20106;-79
2021/12/23 10:04:54;;;;;;;46.60;21.05;;;;;;;-2.94;100.00;98412.69;10236581;28;20146;-77
2021/12/23 10:31:25;;;;;;;48.58;20.83;;;;;;;-2.50;100.00;98378.84;10242038;28;20048;-79
2021/12/23 10:41:46;;;;;;;48.13;21.35;;;;;;;-2.47;100.00;98367.88;10272113;28;20090;-71
2021/12/23 10:46:47;;;;;;;51.42;21.48;;;;;;;-2.42;100.00;98368.75;10271022;28;20035;-78
2021/12/23 10:52:06;;;;;;;43.00;19.65;;;;;;;-2.37;100.00;98355.72;10292336;28;20111;-77
2021/12/23 11:03:12;;;;;;;46.42;19.25;;;;;;;-2.27;100.00;98349.03;10242730;28;20056;-78
2021/12/23 11:40:10;;;;;;;52.00;22.13;;;;;;;-1.86;100.00;98300.50;10252349;28;20499;-78
2021/12/23 11:45:11;;;;;;;47.95;21.30;;;;;;;-1.71;100.00;98282.28;10235749;28;20043;-78
2021/12/23 11:50:19;;;;;;;50.15;22.67;;;;;;;-1.61;100.00;98276.38;10238823;28;20055;-78
2021/12/23 11:55:19;;;;;;;50.22;20.83;;;;;;;-1.50;100.00;98262.28;10251374;28;20091;-80
2021/12/23 12:00:37;;;;;;;51.33;20.65;;;;;;;-1.45;100.00;98259.72;10253858;28;20048;-78
2021/12/23 12:05:42;;;;;;;39.30;19.45;;;;;;;-1.35;100.00;98254.56;10255601;28;20047;-77
2021/12/23 12:10:44;;;;;;;43.38;19.77;;;;;;;-1.31;100.00;98249.59;10253140;28;20518;-80
2021/12/23 12:15:53;;;;;;;43.10;18.95;;;;;;;-1.28;100.00;98243.84;10248723;28;20165;-78
2021/12/23 12:20:59;;;;;;;40.42;19.20;;;;;;;-1.13;100.00;98230.84;10253095;28;20055;-78
2021/12/23 12:26:12;;;;;;;43.08;20.23;;;;;;;-1.15;100.00;98225.03;10270598;28;20487;-79
2021/12/23 12:31:21;;;;;;;40.53;18.90;;;;;;;-1.27;100.00;98213.84;10247130;28;20052;-79
2021/12/23 12:36:24;;;;;;;43.35;19.65;;;;;;;-1.12;100.00;98211.34;10246858;28;20518;-79
2021/12/23 12:41:32;;;;;;;43.13;19.83;;;;;;;-1.07;100.00;98211.44;10242652;28;20070;-80
2021/12/23 12:46:45;;;;;;;40.83;18.73;;;;;;;-1.01;100.00;98209.63;10249947;28;20058;-79
2021/12/23 12:51:51;;;;;;;49.00;21.15;;;;;;;-0.92;100.00;98208.13;10264485;28;20525;-80
2021/12/23 12:56:57;;;;;;;42.95;20.23;;;;;;;-0.94;100.00;98197.84;10220417;28;20075;-79
2021/12/23 13:01:59;;;;;;;48.05;20.20;;;;;;;-0.94;100.00;98199.69;10256244;28;20055;-78
2021/12/23 13:07:20;;;;;;;46.30;21.27;;;;;;;-0.81;100.00;98193.22;10252740;28;20048;-79
2021/12/23 13:12:44;;;;;;;47.10;21.63;;;;;;;-0.93;100.00;98180.97;10257596;28;20047;-79
2021/12/23 13:18:15;;;;;;;40.57;20.00;;;;;;;-0.84;100.00;98177.91;10276910;28;20122;-80
2021/12/23 13:23:18;;;;;;;46.40;21.20;;;;;;;-0.77;100.00;98166.09;10276965;28;20062;-75
2021/12/23 13:28:48;;;;;;;46.92;20.63;;;;;;;-0.82;100.00;98167.88;10247141;28;20052;-78
2021/12/23 13:33:49;;;;;;;47.47;21.05;;;;;;;-0.85;100.00;98163.94;10239470;28;20048;-78
2021/12/23 13:39:00;;;;;;;46.22;20.55;;;;;;;-0.78;100.00;98153.97;10220402;28;20146;-81
2021/12/23 13:44:14;;;;;;;47.78;21.08;;;;;;;-0.80;100.00;98147.38;10254277;28;20051;-79
2021/12/23 13:49:17;;;;;;;49.85;21.27;;;;;;;-0.65;100.00;98148.25;10256874;28;20055;-81
2021/12/23 13:54:18;;;;;;;47.17;21.23;;;;;;;-0.78;100.00;98137.38;10263126;28;20059;-80
2021/12/23 13:59:27;;;;;;;49.97;20.33;;;;;;;-0.58;100.00;98143.56;10288600;28;20102;-79
2021/12/23 14:04:28;;;;;;;47.20;20.77;;;;;;;-0.61;100.00;98138.03;10287322;28;20096;-78
2021/12/23 14:09:31;;;;;;;50.22;23.05;;;;;;;-0.46;100.00;98130.19;10276220;28;20047;-78
2021/12/23 14:14:31;;;;;;;49.40;21.07;;;;;;;-0.52;100.00;98130.44;10265780;28;20819;-77
2021/12/23 14:25:42;;;;;;;44.13;20.40;;;;;;;-0.38;100.00;98132.34;10217562;28;20110;-79
2021/12/23 14:31:01;;;;;;;47.72;22.27;;;;;;;-0.39;100.00;98135.25;10242675;28;20059;-79
2021/12/23 14:36:10;;;;;;;51.72;22.63;;;;;;;-0.38;100.00;98123.66;10232816;28;20487;-77
2021/12/23 14:41:16;;;;;;;44.97;22.25;;;;;;;-0.37;100.00;98119.97;10246909;28;20475;-78
2021/12/23 14:46:17;;;;;;;48.50;21.30;;;;;;;-0.40;100.00;98123.91;10229033;28;20142;-78
2021/12/23 14:51:23;;;;;;;41.30;20.23;;;;;;;-0.38;100.00;98113.91;10246743;28;20134;-78
2021/12/23 14:56:24;;;;;;;43.00;21.05;;;;;;;-0.35;100.00;98107.34;10252588;28;20085;-79
2021/12/23 15:01:25;;;;;;;46.38;21.48;;;;;;;-0.31;100.00;98098.66;10256273;28;20067;-78
2021/12/23 15:06:25;;;;;;;48.97;20.65;;;;;;;-0.39;100.00;98088.59;10251168;28;20055;-77
2021/12/23 15:11:29;;;;;;;53.53;22.42;;;;;;;-0.36;100.00;98090.72;10249473;28;20039;-77
2021/12/23 15:16:30;;;;;;;47.83;21.88;;;;;;;-0.38;100.00;98076.97;10248162;28;20105;-79
2021/12/23 15:21:42;;;;;;;49.72;22.08;;;;;;;-0.34;100.00;98066.75;10252800;28;20471;-78
2021/12/23 15:27:00;;;;;;;42.70;21.15;;;;;;;-0.32;100.00;98054.09;10244167;28;20094;-77
2021/12/23 15:32:10;;;;;;;51.65;21.35;;;;;;;-0.36;100.00;98045.13;10240340;28;20051;-77
2021/12/23 15:37:13;;;;;;;43.38;19.65;;;;;;;-0.31;100.00;98026.66;10237013;28;20058;-76
2021/12/23 15:42:15;;;;;;;48.42;21.38;;;;;;;-0.28;100.00;98034.03;10242129;28;20505;-76
2021/12/23 15:47:19;;;;;;;49.65;22.17;;;;;;;-0.23;100.00;98020.09;10240466;28;20051;-76
2021/12/23 15:52:21;;;;;;;47.78;21.33;;;;;;;-0.15;100.00;98016.97;10280740;28;20043;-78
2021/12/23 15:57:22;;;;;;;48.42;21.58;;;;;;;-0.14;100.00;98008.00;10267479;28;20098;-80
2021/12/23 16:02:27;;;;;;;47.17;20.83;;;;;;;-0.08;100.00;97999.84;10268268;28;20062;-78
2021/12/23 16:07:36;;;;;;;49.17;21.23;;;;;;;-0.11;100.00;97994.28;10278194;28;20107;-79
2021/12/23 16:12:41;;;;;;;43.70;20.95;;;;;;;-0.09;100.00;97995.63;10271650;28;20083;-79
2021/12/23 16:17:44;;;;;;;;;;;;;;;-0.08;100.00;97970.03;10265243;28;20054;-77
2021/12/23 16:22:47;;;;;;;48.33;20.17;;;;;;;0.01;100.00;97976.38;10286321;28;19969;-79
2021/12/23 16:27:49;;;;;;;45.45;20.73;;;;;;;0.05;100.00;97972.16;10239245;28;20066;-79
2021/12/23 16:32:55;;;;;;;49.80;20.42;;;;;;;-0.01;100.00;97967.91;10260803;28;20506;-79
2021/12/23 16:37:56;;;;;;;45.65;22.70;;;;;;;0.17;100.00;97950.78;10273085;28;20160;-78
2021/12/23 16:42:57;;;;;;;47.63;21.23;;;;;;;0.13;100.00;97960.28;10278073;28;20047;-81
2021/12/23 16:47:59;;;;;;;43.70;19.88;;;;;;;0.12;100.00;97950.78;10287673;28;20061;-79
2021/12/23 16:53:01;;;;;;;41.75;21.27;;;;;;;0.15;100.00;97952.91;10292750;28;20047;-83
2021/12/23 16:58:04;;;;;;;46.30;22.08;;;;;;;0.20;100.00;97932.59;10293149;28;20039;-78
2021/12/23 17:03:07;;;;;;;44.88;21.88;;;;;;;0.32;100.00;97907.78;10283741;28;20231;-80
2021/12/23 17:08:10;;;;;;;43.22;22.08;;;;;;;0.22;100.00;97906.72;10257729;28;20078;-80
2021/12/23 17:13:12;;;;;;;41.70;21.67;;;;;;;0.30;100.00;97896.69;10236359;28;20428;-76
2021/12/23 17:18:33;;;;;;;46.38;20.85;;;;;;;0.33;100.00;97893.53;10252529;28;20043;-79
2021/12/23 17:23:34;;;;;;;46.17;20.05;;;;;;;0.39;100.00;97887.19;10274196;28;20051;-79
2021/12/23 17:28:34;;;;;;;49.88;23.10;;;;;;;0.30;100.00;97883.50;10284350;28;20031;-80
2021/12/23 17:33:36;;;;;;;41.65;19.92;;;;;;;0.23;100.00;97876.63;10285988;28;20039;-78
2021/12/23 17:38:37;;;;;;;43.67;21.25;;;;;;;0.27;100.00;97888.25;10237133;28;20048;-78
2021/12/23 17:43:37;;;;;;;53.08;25.20;;;;;;;0.23;100.00;97894.31;10242864;28;20039;-78
2021/12/23 17:48:40;;;;;;;46.47;22.92;;;;;;;0.24;100.00;97891.41;10242507;28;20734;-79
2021/12/23 17:53:41;;;;;;;43.67;22.25;;;;;;;0.23;100.00;97884.56;10252911;28;20059;-78
2021/12/23 17:58:43;;;;;;;41.50;21.50;;;;;;;0.20;100.00;97890.38;10252991;28;20406;-78
2021/12/23 18:03:44;;;;;;;43.47;22.33;;;;;;;0.20;100.00;97890.38;10245716;28;20055;-78
2021/12/23 18:08:46;;;;;;;46.40;21.27;;;;;;;0.19;100.00;97885.38;10255322;28;20498;-79
2021/12/23 18:13:52;;;;;;;46.13;21.83;;;;;;;0.19;100.00;97888.78;10251360;28;20059;-78
2021/12/23 18:18:55;;;;;;;46.70;22.85;;;;;;;0.18;100.00;97883.75;10237984;28;20061;-78
2021/12/23 18:23:55;;;;;;;45.03;22.67;;;;;;;0.24;100.00;97867.66;10284052;28;20115;-79
2021/12/23 18:29:00;;;;;;;42.20;22.73;;;;;;;0.20;100.00;97863.97;10278890;28;20047;-80
2021/12/23 18:34:00;;;;;;;46.72;22.50;;;;;;;0.23;100.00;97862.66;10278780;28;20070;-80
2021/12/23 18:39:10;;;;;;;45.22;22.63;;;;;;;0.26;100.00;97849.72;10265658;28;20111;-78
2021/12/23 18:44:13;;;;;;;44.67;21.63;;;;;;;0.34;100.00;97851.03;10264096;28;20047;-77
2021/12/23 18:49:14;;;;;;;40.60;20.77;;;;;;;0.39;100.00;97845.75;10247622;28;20073;-80
2021/12/23 18:54:15;;;;;;;42.75;22.20;;;;;;;0.37;100.00;97824.09;10233072;28;20142;-78
2021/12/23 18:59:18;;;;;;;42.80;19.88;;;;;;;0.37;100.00;97821.47;10248486;28;20035;-78
2021/12/23 19:09:43;;;;;;;43.97;20.67;;;;;;;0.52;100.00;97810.06;10241387;28;20134;-79
2021/12/23 19:14:44;;;;;;;;;;;;;;;0.54;100.00;97800.00;10279718;28;20043;-80
2021/12/23 19:19:44;;;;;;;48.60;23.17;;;;;;;0.52;100.00;97805.56;10243353;28;19931;-83
2021/12/23 19:24:46;;;;;;;37.75;19.77;;;;;;;0.53;100.00;97798.44;10251795;28;20123;-81
2021/12/23 19:29:49;;;;;;;43.85;22.35;;;;;;;0.59;100.00;97791.28;10238862;28;20054;-79
2021/12/23 19:34:49;;;;;;;42.63;22.20;;;;;;;0.61;100.00;97792.59;10266159;28;20125;-79
2021/12/23 19:39:50;;;;;;;40.70;21.50;;;;;;;0.65;100.00;97791.03;10285758;28;20070;-81
2021/12/23 19:44:53;;;;;;;40.78;20.27;;;;;;;0.66;100.00;97795.25;10296694;28;20051;-79
2021/12/23 19:49:54;;;;;;;49.30;22.88;;;;;;;0.69;100.00;97804.47;10239459;28;20111;-77
2021/12/23 19:54:54;;;;;;;40.80;21.63;;;;;;;0.69;100.00;97804.47;10254897;28;20062;-78
2021/12/23 19:59:55;;;;;;;42.53;20.38;;;;;;;0.75;100.00;97806.81;10240693;28;20744;-80
2021/12/23 20:04:56;;;;;;;42.97;21.25;;;;;;;0.82;100.00;97809.97;10252316;28;20058;-79
2021/12/23 20:10:02;;;;;;;42.42;20.98;;;;;;;0.80;100.00;97803.34;10251242;28;20142;-79
2021/12/23 20:15:07;;;;;;;40.28;19.75;;;;;;;0.90;100.00;97802.50;10238405;28;20054;-80
2021/12/23 20:20:11;;;;;;;39.45;20.63;;;;;;;0.98;100.00;97799.31;10242150;28;20063;-79
2021/12/23 20:25:16;;;;;;;42.72;21.30;;;;;;;0.92;100.00;97785.34;10252777;28;20474;-81
2021/12/23 20:30:30;;;;;;;41.22;20.85;;;;;;;0.94;100.00;97787.72;10242967;28;20055;-79
2021/12/23 20:35:33;;;;;;;37.45;19.50;;;;;;;0.88;100.00;97792.22;10241656;28;20047;-79
2021/12/23 20:40:34;;;;;;;41.03;21.02;;;;;;;0.94;100.00;97782.44;10259133;28;20043;-83
2021/12/23 20:45:35;;;;;;;44.83;21.95;;;;;;;0.92;100.00;97782.72;10250104;28;20119;-80
2021/12/23 20:50:41;;;;;;;39.03;21.20;;;;;;;1.03;100.00;97791.38;10270335;28;20090;-86
2021/12/23 20:56:00;;;;;;;41.72;21.92;;;;;;;1.01;100.00;97778.44;10287747;28;20039;-80
2021/12/23 21:01:24;;;;;;;39.58;23.10;;;;;;;1.04;100.00;97766.53;10259131;29;20051;-83
2021/12/23 21:06:29;;;;;;;43.33;21.63;;;;;;;1.05;100.00;97770.75;10262865;28;20409;-81
2021/12/23 21:11:34;;;;;;;38.50;22.45;;;;;;;1.06;100.00;97770.47;10257623;28;20075;-80
2021/12/23 21:33:57;;;;;;;35.22;19.13;;;;;;;1.15;100.00;97789.19;10422658;28;20054;-80
2021/12/23 21:38:58;;;;;;;40.47;19.90;;;;;;;1.23;100.00;97782.53;10389880;28;20045;-82
2021/12/23 21:43:59;;;;;;;42.40;21.60;;;;;;;1.17;100.00;97779.13;10420704;28;20049;-79
2021/12/23 21:49:01;;;;;;;35.10;19.63;;;;;;;1.21;100.00;97776.72;10375342;28;20397;-78
2021/12/23 21:54:05;;;;;;;39.77;19.87;;;;;;;1.25;100.00;97770.59;10423244;28;20393;-76
2021/12/23 21:59:05;;;;;;;38.78;19.05;;;;;;;1.23;100.00;97762.16;10401634;28;20500;-77
2021/12/23 22:04:11;;;;;;;35.38;19.33;;;;;;;1.41;100.00;97766.78;10403371;28;20046;-77
2021/12/23 22:09:14;;;;;;;32.75;18.00;;;;;;;1.47;100.00;97751.69;10412079;28;20053;-79
2021/12/23 22:14:16;;;;;;;36.13;18.00;;;;;;;1.49;100.00;97752.19;10425011;28;20054;-77
2021/12/23 22:19:19;;;;;;;30.27;16.02;;;;;;;1.84;100.00;97756.41;10437013;28;20591;-77
2021/12/23 22:24:20;;;;;;;23.55;12.75;;;;;;;2.74;100.00;97762.84;10436100;28;20140;-79
2021/12/23 22:29:20;;;;;;;21.40;12.38;;;;;;;3.62;100.00;97763.97;10463718;28;20516;-79
2021/12/23 22:34:24;;;;;;;17.13;10.05;;;;;;;4.01;100.00;97750.31;10461660;28;20029;-78
2021/12/23 22:39:25;;;;;;;;;;;;;;;4.49;100.00;97749.97;10457353;28;20165;-76
2021/12/23 22:44:28;;;;;;;14.65;8.95;;;;;;;4.78;100.00;97734.47;10450646;28;19980;-78
2021/12/23 22:49:29;;;;;;;14.37;8.57;;;;;;;4.85;100.00;97718.13;10447255;28;20058;-77
2021/12/23 22:54:30;;;;;;;14.38;7.97;;;;;;;5.01;100.00;97710.59;10430097;28;20049;-82
2021/12/23 22:59:32;;;;;;;11.07;7.93;;;;;;;5.13;100.00;97703.66;10457551;28;20045;-81
2021/12/23 23:04:32;;;;;;;14.20;8.55;;;;;;;5.30;100.00;97695.03;10460958;28;20053;-78
2021/12/23 23:09:36;;;;;;;14.70;8.63;;;;;;;5.38;100.00;97686.28;10452938;28;20096;-79
2021/12/23 23:19:43;;;;;;;15.27;7.93;;;;;;;5.33;100.00;97665.16;10468145;28;20594;-82
2021/12/23 23:24:50;;;;;;;16.02;8.27;;;;;;;5.38;100.00;97672.97;10494726;28;20044;-80
2021/12/23 23:40:22;;;;;;;9.57;7.63;;;;;;;5.59;100.00;97644.00;10473552;28;20368;-81
2021/12/23 23:45:47;;;;;;;10.73;7.10;;;;;;;5.67;100.00;97645.94;10481877;28;20175;-79
2021/12/23 23:50:51;;;;;;;11.20;7.15;;;;;;;5.76;100.00;97634.50;10450035;28;20056;-81
2021/12/23 23:56:04;;;;;;;10.45;6.72;;;;;;;5.94;100.00;97620.19;10482307;28;20067;-78
